Time;durP1;ratioP1;P1;durP2;ratioP2;P2;SDS_P1;SDS_P2;PMS_P1;PMS_P2;Temp;Humidity;BMP_temperature;BMP_pressure;BME280_temperature;BME280_humidity;BME280_pressure;Samples;Min_cycle;Max_cycle;Signal;HPM_P1;HPM_P2
2023/12/21 00:04:08;;;;;;;1.80;1.00;;;4.80;99.90;;;2.65;100.00;99777.63;10454029;27;98320;-91
2023/12/21 00:09:12;;;;;;;2.33;1.30;;;4.80;99.90;;;2.74;100.00;99776.00;10436153;27;96532;-93
2023/12/21 00:14:15;;;;;;;1.97;1.23;;;4.90;99.90;;;2.77;100.00;99771.34;10465821;27;97490;-92
2023/12/21 00:19:18;;;;;;;2.63;1.07;;;4.90;99.90;;;2.85;100.00;99763.66;10519102;27;97167;-92
2023/12/21 00:24:22;;;;;;;3.10;1.30;;;4.90;99.90;;;2.86;100.00;99770.56;10484255;27;96522;-93
2023/12/21 00:29:25;;;;;;;1.80;0.97;;;4.90;99.90;;;2.95;100.00;99775.06;10454985;27;96699;-92
2023/12/21 00:34:29;;;;;;;2.27;1.27;;;4.90;99.90;;;2.99;100.00;99764.28;10436305;27;96565;-91
2023/12/21 00:39:32;;;;;;;2.20;0.90;;;5.00;99.90;;;2.95;100.00;99764.56;10436341;27;96575;-91
2023/12/21 00:44:35;;;;;;;2.80;1.30;;;5.00;99.90;;;2.93;100.00;99763.81;10470240;27;97185;-92
2023/12/21 00:49:43;;;;;;;2.00;1.27;;;5.00;99.90;;;2.85;100.00;99761.03;10458442;27;98248;-91
2023/12/21 00:54:46;;;;;;;3.07;1.40;;;4.90;99.90;;;2.71;100.00;99740.38;10459587;27;96579;-92
2023/12/21 00:59:49;;;;;;;2.33;1.10;;;4.80;99.90;;;2.65;100.00;99740.88;10464686;27;96490;-91
2023/12/21 01:04:53;;;;;;;2.23;1.00;;;4.70;99.90;;;2.48;100.00;99737.03;10464632;27;96630;-91
2023/12/21 01:09:56;;;;;;;2.23;1.13;;;4.60;99.90;;;2.32;100.00;99729.59;10448541;27;97081;-91
2023/12/21 01:15:01;;;;;;;2.20;0.87;;;4.50;99.90;;;2.37;100.00;99719.56;10493436;27;96627;-91
2023/12/21 01:20:05;;;;;;;1.77;0.90;;;4.50;99.90;;;2.55;100.00;99719.00;10474602;27;97026;-92
2023/12/21 01:25:08;;;;;;;1.00;0.73;;;4.60;99.90;;;2.61;100.00;99718.50;10464379;27;96988;-92
2023/12/21 01:30:12;;;;;;;1.50;0.73;;;4.70;99.90;;;2.64;100.00;99698.09;10487427;27;96600;-91
2023/12/21 01:35:16;;;;;;;1.60;0.90;;;4.70;99.90;;;2.67;100.00;99695.19;10423692;27;97556;-92
2023/12/21 01:40:19;;;;;;;1.20;0.67;;;4.70;99.90;;;2.71;100.00;99700.19;10480117;27;96593;-92
2023/12/21 01:45:23;;;;;;;1.13;0.60;;;4.80;99.90;;;2.79;100.00;99685.44;10454440;27;96518;-93
2023/12/21 01:50:27;;;;;;;1.17;0.63;;;4.80;99.90;;;2.88;100.00;99663.69;10478862;27;96436;-92
2023/12/21 01:55:30;;;;;;;5.00;1.90;;;4.90;99.90;;;2.99;100.00;99664.53;10446893;27;96526;-92
2023/12/21 02:00:35;;;;;;;1.77;0.87;;;5.00;99.90;;;3.11;100.00;99664.28;10470620;27;97994;-91
2023/12/21 02:05:39;;;;;;;2.50;0.80;;;5.20;99.90;;;3.28;100.00;99669.88;10469845;27;96596;-92
2023/12/21 02:10:43;;;;;;;2.70;0.73;;;5.30;99.90;;;3.36;100.00;99657.75;10467801;27;97014;-91
2023/12/21 02:15:53;;;;;;;2.47;0.87;;;5.40;99.90;;;3.36;100.00;99646.41;10474482;27;97140;-91
2023/12/21 02:20:58;;;;;;;1.67;0.37;;;5.40;99.90;;;3.41;100.00;99650.28;10435067;27;96473;-91
2023/12/21 02:26:02;;;;;;;1.80;0.43;;;5.50;99.90;;;3.44;100.00;99631.63;10469512;27;96881;-91
2023/12/21 02:31:06;;;;;;;0.43;0.43;;;5.60;99.90;;;3.51;100.00;99623.22;10466804;27;98205;-91
2023/12/21 02:36:09;;;;;;;2.03;0.67;;;5.70;99.90;;;3.66;100.00;99621.84;10487119;27;96770;-92
2023/12/21 02:41:13;;;;;;;3.47;0.57;;;5.70;99.90;;;3.72;96.66;99630.00;10445965;27;96565;-93
2023/12/21 02:46:19;;;;;;;1.93;0.53;;;5.70;99.90;;;3.77;95.52;99619.06;10447926;27;97103;-92
2023/12/21 02:51:22;;;;;;;1.50;0.50;;;5.80;99.90;;;3.75;94.24;99619.22;10507675;27;96380;-92
2023/12/21 02:56:25;;;;;;;1.33;0.50;;;5.80;99.90;;;3.67;94.45;99621.72;10494481;27;96902;-90
2023/12/21 03:01:29;;;;;;;2.20;0.80;;;5.70;99.90;;;3.63;95.01;99611.59;10491126;27;96933;-91
2023/12/21 03:06:32;;;;;;;3.47;0.87;;;5.60;99.90;;;3.52;95.36;99612.56;10444519;27;96547;-92
2023/12/21 03:11:36;;;;;;;5.17;1.50;;;5.50;99.90;;;3.53;96.59;99613.38;10469856;27;97408;-92
2023/12/21 03:16:39;;;;;;;1.40;0.70;;;5.50;99.90;;;3.55;94.30;99614.09;10456363;27;96644;-92
2023/12/21 03:21:43;;;;;;;1.03;0.47;;;5.50;99.90;;;3.51;94.21;99608.28;10434405;27;96735;-92
2023/12/21 03:26:46;;;;;;;1.73;0.57;;;5.50;99.90;;;3.38;96.79;99603.28;10433596;27;96494;-92
2023/12/21 03:31:52;;;;;;;0.87;0.47;;;5.40;99.90;;;3.33;97.40;99600.25;10458565;27;96602;-92
2023/12/21 03:36:56;;;;;;;2.67;0.73;;;5.40;99.90;;;3.26;99.17;99588.63;10427950;27;97291;-92
2023/12/21 03:41:59;;;;;;;8.77;5.13;;;5.30;99.90;;;3.21;100.00;99593.44;10458829;27;97050;-91
2023/12/21 03:47:02;;;;;;;2.20;0.80;;;5.30;99.90;;;3.05;100.00;99567.69;10438138;27;96827;-91
2023/12/21 03:52:06;;;;;;;4.10;0.80;;;5.20;99.90;;;3.08;100.00;99574.50;10499519;27;97687;-91
2023/12/21 03:57:10;;;;;;;0.90;0.50;;;5.20;99.90;;;3.14;100.00;99594.97;10414897;27;1240591;-91
2023/12/21 04:02:14;;;;;;;1.50;0.60;;;5.20;99.90;;;3.13;100.00;99588.06;10453852;27;96526;-91
2023/12/21 04:07:17;;;;;;;1.80;1.07;;;5.20;99.90;;;3.15;98.46;99586.13;10432266;27;96626;-91
2023/12/21 04:12:21;;;;;;;2.13;1.37;;;5.20;99.90;;;3.14;97.32;99573.97;10442597;27;97065;-91
2023/12/21 04:17:25;;;;;;;5.87;1.90;;;5.20;99.90;;;3.05;97.01;99556.38;10465123;27;96959;-91
2023/12/21 04:22:28;;;;;;;4.80;1.80;;;5.10;99.90;;;3.11;96.39;99554.03;10440208;27;96718;-91
2023/12/21 04:27:32;;;;;;;7.27;2.30;;;5.10;99.90;;;3.01;97.62;99540.09;10462357;27;97012;-91
2023/12/21 04:32:35;;;;;;;4.57;2.07;;;5.10;99.90;;;2.94;99.63;99536.34;10459257;27;97692;-90
2023/12/21 04:37:39;;;;;;;4.37;2.00;;;5.10;99.90;;;2.92;100.00;99543.50;10467542;27;98962;-88
2023/12/21 04:42:44;;;;;;;6.90;2.47;;;5.00;99.90;;;2.79;100.00;99528.00;10446913;27;96742;-90
2023/12/21 04:47:48;;;;;;;4.67;2.27;;;4.90;99.90;;;2.77;100.00;99540.44;10469290;27;96609;-90
2023/12/21 04:52:53;;;;;;;6.50;3.27;;;4.80;99.90;;;2.63;100.00;99517.19;10453935;27;97017;-90
2023/12/21 04:57:57;;;;;;;7.23;3.57;;;4.70;99.90;;;2.65;100.00;99515.28;10481406;27;96592;-91
2023/12/21 05:03:01;;;;;;;7.80;4.40;;;4.80;99.90;;;2.60;100.00;99506.97;10450213;27;97345;-91
2023/12/21 05:08:05;;;;;;;8.53;5.00;;;4.70;99.90;;;2.45;100.00;99509.13;10481008;27;96908;-90
2023/12/21 05:13:08;;;;;;;14.63;6.27;;;4.60;99.90;;;2.27;100.00;99500.22;10502124;27;97859;-91
2023/12/21 05:18:12;;;;;;;12.43;5.77;;;4.40;99.90;;;2.30;100.00;99499.97;10472858;27;96817;-90
2023/12/21 05:23:15;;;;;;;18.00;7.97;;;4.30;99.90;;;2.22;100.00;99486.69;10460839;27;96559;-90
2023/12/21 05:28:19;;;;;;;13.10;6.47;;;4.30;99.90;;;2.20;100.00;99504.34;10438318;27;96480;-89
2023/12/21 05:33:23;;;;;;;11.63;6.33;;;4.30;99.90;;;2.13;100.00;99489.16;10465940;27;97037;-89
2023/12/21 05:38:26;;;;;;;14.17;6.50;;;4.20;99.90;;;2.03;100.00;99469.09;10443908;27;97009;-89
2023/12/21 05:43:30;;;;;;;17.10;9.23;;;4.20;99.90;;;2.11;100.00;99477.13;10469436;27;97058;-89
2023/12/21 05:48:33;;;;;;;13.27;6.40;;;4.20;99.90;;;2.16;100.00;99488.06;10459792;27;96526;-90
2023/12/21 05:53:36;;;;;;;11.27;6.07;;;4.20;99.90;;;2.19;100.00;99485.16;10449556;27;96555;-90
2023/12/21 05:58:40;;;;;;;10.40;5.47;;;4.20;99.90;;;2.20;100.00;99476.34;10485523;27;96512;-89
2023/12/21 06:03:44;;;;;;;14.43;5.50;;;4.30;99.90;;;2.16;100.00;99474.97;10458447;27;96693;-90
2023/12/21 06:08:47;;;;;;;11.57;5.27;;;4.20;99.90;;;2.02;100.00;99462.19;10460756;27;98273;-89
2023/12/21 06:13:50;;;;;;;11.47;5.93;;;4.20;99.90;;;1.90;100.00;99456.22;10446853;27;97365;-89
2023/12/21 06:18:54;;;;;;;12.80;6.57;;;4.00;99.90;;;1.70;100.00;99457.91;10451421;27;96594;-92
2023/12/21 06:23:57;;;;;;;10.17;5.47;;;3.90;99.90;;;1.49;100.00;99460.53;10454781;27;96527;-90
2023/12/21 06:29:01;;;;;;;11.83;6.57;;;3.70;99.90;;;1.40;100.00;99453.44;10464966;27;96933;-90
2023/12/21 06:34:04;;;;;;;15.00;7.40;;;3.50;99.90;;;1.40;100.00;99452.63;10449983;27;97088;-91
2023/12/21 06:39:08;;;;;;;16.67;7.00;;;3.50;99.90;;;1.39;100.00;99451.78;10486122;27;96970;-90
2023/12/21 06:44:12;;;;;;;12.13;6.10;;;3.50;99.90;;;1.36;100.00;99425.84;10443205;27;97055;-90
2023/12/21 06:49:15;;;;;;;12.93;6.13;;;3.50;99.90;;;1.36;100.00;99409.31;10455810;27;96788;-90
2023/12/21 06:54:19;;;;;;;12.77;6.00;;;3.50;99.90;;;1.60;100.00;99423.78;10475598;27;96647;-90
2023/12/21 06:59:22;;;;;;;12.37;5.47;;;3.60;99.90;;;1.66;100.00;99422.44;10441183;27;96494;-90
2023/12/21 07:04:26;;;;;;;18.20;7.97;;;3.70;99.90;;;1.63;100.00;99435.81;10455532;27;97685;-90
2023/12/21 07:09:29;;;;;;;11.80;6.13;;;3.70;99.90;;;1.60;100.00;99436.06;10448275;27;96574;-90
2023/12/21 07:14:32;;;;;;;14.33;7.50;;;3.70;99.90;;;1.43;100.00;99411.28;10455264;27;97121;-91
2023/12/21 07:19:37;;;;;;;48.30;16.07;;;3.60;99.90;;;1.37;100.00;99417.03;10494904;27;96961;-90
2023/12/21 07:24:41;;;;;;;46.87;14.87;;;3.50;99.90;;;1.25;100.00;99407.59;10482827;27;97926;-90
2023/12/21 07:29:44;;;;;;;29.77;12.13;;;3.40;99.90;;;1.16;100.00;99416.22;10465722;27;96916;-90
2023/12/21 07:34:48;;;;;;;20.53;9.13;;;3.30;99.90;;;1.22;100.00;99406.06;10456221;27;96724;-90
2023/12/21 07:39:51;;;;;;;18.47;9.43;;;3.40;99.90;;;1.42;100.00;99411.41;10466783;27;96538;-90
2023/12/21 07:44:55;;;;;;;15.23;6.90;;;3.50;99.90;;;1.70;100.00;99376.72;10455957;27;96547;-90
2023/12/21 07:49:59;;;;;;;12.57;6.60;;;3.80;99.90;;;2.03;100.00;99386.06;10441064;27;96500;-90
2023/12/21 07:55:02;;;;;;;14.23;7.47;;;4.20;99.90;;;2.36;100.00;99395.41;10421691;27;96448;-90
2023/12/21 08:00:09;;;;;;;13.07;6.87;;;4.40;99.90;;;2.66;100.00;99398.91;10464786;27;97564;-90
2023/12/21 08:05:14;;;;;;;11.43;6.13;;;4.70;99.90;;;2.93;100.00;99387.69;10472440;27;96462;-90
2023/12/21 08:10:18;;;;;;;16.10;7.30;;;5.00;99.90;;;3.22;100.00;99401.63;10444612;27;97401;-90
2023/12/21 08:15:22;;;;;;;12.17;6.93;;;5.20;99.90;;;3.23;100.00;99389.31;10452513;27;97839;-90
2023/12/21 08:20:25;;;;;;;16.03;6.63;;;5.30;99.90;;;3.25;100.00;99387.41;10441283;27;96581;-91
2023/12/21 08:25:32;;;;;;;14.57;6.40;;;5.30;99.90;;;3.25;100.00;99381.34;10471332;27;96696;-90
2023/12/21 08:30:35;;;;;;;19.37;8.73;;;5.40;99.90;;;3.33;100.00;99369.13;10476052;27;96629;-90
2023/12/21 08:35:39;;;;;;;9.80;5.40;;;5.40;99.90;;;3.42;100.00;99376.19;10478719;27;96461;-90
2023/12/21 08:40:42;;;;;;;9.60;4.70;;;5.50;99.90;;;3.55;100.00;99388.16;10468262;27;96479;-90
2023/12/21 08:45:46;;;;;;;20.40;9.43;;;5.60;99.90;;;3.61;100.00;99371.84;10461360;27;97374;-90
2023/12/21 08:50:49;;;;;;;8.30;4.37;;;5.70;99.90;;;3.82;100.00;99375.06;10446501;27;96767;-90
2023/12/21 08:55:52;;;;;;;6.60;3.57;;;5.80;99.90;;;4.01;100.00;99355.72;10447903;27;97111;-92
2023/12/21 09:00:58;;;;;;;5.73;3.40;;;6.10;99.90;;;4.48;100.00;99374.84;10448384;27;97463;-90
2023/12/21 09:06:02;;;;;;;6.73;3.33;;;6.50;99.90;;;4.72;100.00;99347.94;10443078;27;96858;-91
2023/12/21 09:11:09;;;;;;;6.03;3.70;;;6.80;99.90;;;4.99;100.00;99338.28;10459275;27;97579;-93
2023/12/21 09:16:14;;;;;;;8.63;3.93;;;7.00;99.90;;;5.21;100.00;99336.94;10476694;27;97010;-90
2023/12/21 09:21:18;;;;;;;7.23;3.63;;;7.20;99.90;;;5.33;100.00;99333.06;10473098;27;97429;-90
2023/12/21 09:26:22;;;;;;;7.90;4.20;;;7.30;99.90;;;5.38;100.00;99322.91;10475950;27;96900;-90
2023/12/21 09:31:25;;;;;;;7.37;3.90;;;7.40;99.90;;;5.45;100.00;99323.09;10488482;27;96626;-91
2023/12/21 09:36:28;;;;;;;9.27;4.93;;;7.40;99.90;;;5.44;100.00;99305.63;10472693;27;96553;-90
2023/12/21 09:41:33;;;;;;;8.63;4.57;;;7.50;99.90;;;5.45;100.00;99294.13;10472731;27;96423;-90
2023/12/21 09:46:39;;;;;;;7.87;3.60;;;7.50;99.90;;;5.53;100.00;99286.25;10472781;27;96482;-90
2023/12/21 09:51:45;;;;;;;11.47;5.77;;;7.50;99.90;;;5.53;96.70;99273.09;10472873;27;96546;-91
2023/12/21 09:56:50;;;;;;;9.10;5.27;;;7.50;99.90;;;5.52;97.05;99269.63;10419115;28;96749;-91
2023/12/21 10:01:53;;;;;;;7.90;4.27;;;7.50;99.90;;;5.50;96.67;99263.69;10404119;28;96687;-90
2023/12/21 10:06:57;;;;;;;8.87;5.43;;;7.40;99.90;;;5.40;96.86;99233.16;10421308;28;96457;-91
2023/12/21 10:12:01;;;;;;;9.33;4.87;;;7.40;99.90;;;5.45;97.29;99223.78;10409754;27;97288;-90
2023/12/21 10:17:10;;;;;;;7.40;4.70;;;7.40;99.90;;;5.45;99.70;99202.72;10436815;27;97073;-91
2023/12/21 10:22:13;;;;;;;11.40;4.63;;;7.50;99.90;;;5.73;100.00;99205.94;10430156;27;96527;-90
2023/12/21 10:27:18;;;;;;;8.03;4.47;;;7.70;99.90;;;5.93;96.11;99203.88;10421830;27;96534;-90
2023/12/21 10:32:22;;;;;;;9.30;5.00;;;7.90;99.90;;;5.94;90.27;99188.88;10444160;27;98229;-91
2023/12/21 10:37:26;;;;;;;8.00;4.13;;;7.90;99.90;;;5.92;92.63;99172.38;10431068;27;96454;-90
2023/12/21 10:42:31;;;;;;;10.30;5.87;;;7.90;99.90;;;5.91;91.78;99139.94;10412298;27;97144;-91
2023/12/21 10:47:36;;;;;;;12.33;6.27;;;7.90;99.90;;;5.95;92.25;99106.16;10429818;27;96408;-91
2023/12/21 10:52:44;;;;;;;11.00;5.47;;;7.90;99.90;;;6.01;91.15;99103.69;10420967;28;96490;-90
2023/12/21 10:57:50;;;;;;;13.57;5.77;;;8.00;99.90;;;6.07;90.01;99089.00;10442936;27;97262;-91
2023/12/21 11:02:57;;;;;;;12.87;6.80;;;8.00;99.90;;;6.17;89.19;99066.72;10461806;27;96546;-91
2023/12/21 11:08:01;;;;;;;9.47;4.97;;;8.10;99.90;;;6.34;90.17;99054.31;10461167;27;96425;-90
2023/12/21 11:13:08;;;;;;;14.17;7.33;;;8.30;99.90;;;6.49;90.91;99037.81;10447157;27;96653;-91
2023/12/21 11:18:20;;;;;;;8.17;4.33;;;8.40;99.90;;;6.71;91.79;99037.88;10469061;27;96545;-91
2023/12/21 11:23:24;;;;;;;10.00;5.53;;;8.60;99.90;;;6.85;88.45;99011.75;10471744;27;96440;-91
2023/12/21 11:28:32;;;;;;;7.70;4.43;;;8.80;99.90;;;6.96;90.05;98995.53;10484946;27;96664;-91
2023/12/21 11:33:36;;;;;;;9.37;5.30;;;8.90;99.90;;;6.95;88.19;98993.84;10449833;27;96568;-92
2023/12/21 11:38:47;;;;;;;9.40;5.10;;;8.90;99.90;;;6.87;88.64;98970.16;10458983;27;97016;-91
2023/12/21 11:44:04;;;;;;;11.67;6.47;;;8.90;99.90;;;6.74;89.51;98969.91;10456741;27;96558;-91
2023/12/21 11:49:23;;;;;;;9.23;4.07;;;8.70;99.90;;;6.64;87.26;98955.09;10445210;27;96677;-91
2023/12/21 11:54:27;;;;;;;7.37;4.30;;;8.70;99.90;;;6.51;90.33;98943.44;10463060;27;96681;-91
2023/12/21 11:59:31;;;;;;;7.77;4.60;;;8.50;99.90;;;6.45;89.34;98931.75;10460511;27;96803;-91
2023/12/21 12:04:35;;;;;;;9.27;4.47;;;8.40;99.90;;;6.35;90.80;98907.38;10466114;27;96898;-91
2023/12/21 12:09:39;;;;;;;7.80;4.10;;;8.40;99.90;;;6.38;91.56;98909.69;10444671;27;96494;-90
2023/12/21 12:14:42;;;;;;;7.07;3.63;;;8.30;99.90;;;6.44;89.40;98882.63;10458402;27;96511;-91
2023/12/21 12:19:46;;;;;;;6.57;3.60;;;8.40;99.90;;;6.48;88.82;98862.81;10445537;27;96802;-91
2023/12/21 12:24:51;;;;;;;7.97;3.53;;;8.40;99.90;;;6.48;89.22;98841.69;10458866;27;96547;-90
2023/12/21 12:29:55;;;;;;;7.77;4.33;;;8.40;99.90;;;6.47;88.09;98847.13;10472230;27;97332;-91
2023/12/21 12:34:59;;;;;;;47.17;15.27;;;8.40;99.90;;;6.41;88.28;98856.56;10473796;27;96551;-91
2023/12/21 12:40:05;;;;;;;79.20;31.10;;;8.40;99.90;;;6.35;86.12;98828.22;10498474;27;96453;-92
2023/12/21 12:45:11;;;;;;;31.57;12.57;;;8.30;99.90;;;6.34;88.74;98803.66;10480280;27;96747;-91
2023/12/21 12:50:15;;;;;;;14.23;7.50;;;8.30;99.90;;;6.22;87.87;98772.59;10450934;27;96532;-91
2023/12/21 12:55:23;;;;;;;11.03;5.73;;;8.20;99.90;;;6.16;88.14;98747.75;10469840;27;96620;-91
2023/12/21 13:00:27;;;;;;;9.20;4.50;;;8.20;99.90;;;5.93;87.86;98744.25;10493366;27;96529;-89
2023/12/21 13:05:31;;;;;;;8.77;4.47;;;8.00;99.90;;;5.94;87.34;98752.00;10470437;27;97889;-89
2023/12/21 13:10:34;;;;;;;14.73;7.00;;;7.90;99.90;;;5.86;88.21;98736.19;10472689;27;96523;-89
2023/12/21 13:15:39;;;;;;;14.67;6.30;;;7.80;99.90;;;5.80;89.00;98728.97;10509846;27;97355;-89
2023/12/21 13:20:43;;;;;;;19.20;7.63;;;7.80;99.90;;;5.64;91.47;98693.81;10510287;27;97856;-89
2023/12/21 13:25:46;;;;;;;12.37;5.10;;;7.70;99.90;;;5.66;91.89;98687.53;10494715;27;97559;-89
2023/12/21 13:30:58;;;;;;;12.97;5.33;;;7.60;99.90;;;5.60;92.38;98667.97;10488498;27;96591;-89
2023/12/21 13:36:03;;;;;;;9.43;4.57;;;7.50;99.90;;;5.57;91.10;98668.31;10513047;27;96549;-88
2023/12/21 13:41:08;;;;;;;10.53;5.00;;;7.60;99.90;;;5.60;91.00;98657.44;10472236;27;97318;-89
2023/12/21 13:46:12;;;;;;;16.17;7.80;;;7.60;99.90;;;5.58;91.72;98623.34;10478391;27;96591;-88
2023/12/21 13:51:16;;;;;;;13.97;7.27;;;7.60;99.90;;;5.61;91.50;98628.25;10497808;27;97306;-89
2023/12/21 13:56:20;;;;;;;11.47;6.77;;;7.60;99.90;;;5.59;91.15;98625.00;10454040;27;97188;-88
2023/12/21 14:01:23;;;;;;;9.07;4.90;;;7.60;99.90;;;5.49;91.28;98605.94;10375229;28;97864;-88
2023/12/21 14:06:27;;;;;;;10.47;5.03;;;7.50;99.90;;;5.53;93.20;98624.88;10381393;28;96490;-88
2023/12/21 14:11:33;;;;;;;12.90;5.80;;;7.50;99.90;;;5.52;90.80;98629.31;10349919;28;96647;-89
2023/12/21 14:16:37;;;;;;;13.77;6.30;;;7.50;99.90;;;5.45;91.97;98620.44;10401019;27;97828;-89
2023/12/21 14:21:42;;;;;;;12.83;5.90;;;7.40;99.90;;;5.47;91.90;98623.75;10387277;28;96514;-89
2023/12/21 14:26:46;;;;;;;17.00;10.30;;;7.50;99.90;;;5.44;91.50;98613.53;10388583;27;96609;-88
2023/12/21 14:31:49;;;;;;;12.00;5.80;;;7.50;99.90;;;5.44;91.52;98608.28;10399437;27;96532;-89
2023/12/21 14:36:53;;;;;;;14.13;7.70;;;7.40;99.90;;;5.45;94.23;98593.28;10399111;27;97996;-88
2023/12/21 14:41:56;;;;;;;10.77;5.30;;;7.40;99.90;;;5.40;94.79;98591.19;10374474;28;97241;-88
2023/12/21 14:47:01;;;;;;;11.50;5.43;;;7.30;99.90;;;5.29;96.64;98557.34;10397337;27;96605;-88
2023/12/21 14:52:05;;;;;;;11.97;6.30;;;7.20;99.90;;;5.23;99.90;98563.31;10428788;27;98050;-88
2023/12/21 14:57:08;;;;;;;13.67;6.20;;;7.20;99.90;;;5.16;100.00;98575.50;10429640;27;96553;-89
2023/12/21 15:02:12;;;;;;;15.50;7.80;;;7.10;99.90;;;5.08;100.00;98579.81;10452057;27;96664;-88
2023/12/21 15:07:16;;;;;;;15.27;6.90;;;7.00;99.90;;;4.99;100.00;98551.09;10444264;27;97189;-88
2023/12/21 15:12:20;;;;;;;10.27;5.60;;;6.90;99.90;;;4.98;100.00;98555.53;10443317;27;96938;-88
2023/12/21 15:17:23;;;;;;;12.97;7.30;;;6.90;99.90;;;4.96;100.00;98543.53;10414831;27;96488;-88
2023/12/21 15:22:27;;;;;;;11.87;6.67;;;6.90;99.90;;;4.96;100.00;98544.34;10445779;27;96562;-88
2023/12/21 15:27:31;;;;;;;11.57;6.00;;;6.90;99.90;;;4.96;100.00;98531.19;10427474;27;96607;-88
2023/12/21 15:32:35;;;;;;;12.43;6.90;;;6.90;99.90;;;4.79;100.00;98500.66;10448739;27;96598;-88
2023/12/21 15:37:38;;;;;;;19.97;10.67;;;6.80;99.90;;;4.87;100.00;98503.28;10443315;27;96576;-88
2023/12/21 15:42:41;;;;;;;10.37;6.00;;;6.80;99.90;;;4.85;100.00;98505.25;10404106;27;96407;-88
2023/12/21 15:47:45;;;;;;;11.27;5.87;;;6.80;99.90;;;4.81;100.00;98481.09;10448161;27;96528;-88
2023/12/21 15:52:50;;;;;;;13.27;6.53;;;6.80;99.90;;;4.76;100.00;98466.81;10420304;27;97047;-87
2023/12/21 15:57:54;;;;;;;12.77;7.20;;;6.70;99.90;;;4.69;100.00;98460.63;10423765;27;96577;-88
2023/12/21 16:02:58;;;;;;;16.07;7.90;;;6.70;99.90;;;4.62;100.00;98452.59;10437147;27;97025;-88
2023/12/21 16:08:02;;;;;;;21.50;8.70;;;6.60;99.90;;;4.44;100.00;98408.13;10425119;27;97219;-89
2023/12/21 16:13:06;;;;;;;20.47;9.50;;;6.50;99.90;;;4.41;100.00;98423.44;10435862;27;96465;-90
2023/12/21 16:18:10;;;;;;;11.60;6.73;;;6.40;99.90;;;4.27;100.00;98406.56;10448131;27;96943;-88
2023/12/21 16:23:15;;;;;;;11.70;7.20;;;6.30;99.90;;;4.28;100.00;98400.31;10420606;27;96535;-90
2023/12/21 16:28:19;;;;;;;31.57;13.47;;;6.30;99.90;;;4.25;100.00;98395.38;10415715;27;96772;-90
2023/12/21 16:33:22;;;;;;;32.17;14.33;;;6.20;99.90;;;4.25;100.00;98387.50;10485835;27;97243;-91
2023/12/21 16:38:31;;;;;;;13.20;9.00;;;6.20;99.90;;;4.27;100.00;98380.28;10477327;27;96540;-90
2023/12/21 16:43:35;;;;;;;15.37;8.37;;;6.20;99.90;;;4.28;100.00;98374.03;10450272;27;96480;-90
2023/12/21 16:48:38;;;;;;;14.83;7.67;;;6.20;99.90;;;4.27;100.00;98356.59;10451579;27;96592;-90
2023/12/21 16:53:42;;;;;;;18.40;8.63;;;6.20;99.90;;;4.30;100.00;98343.09;10431189;27;96611;-90
2023/12/21 16:58:45;;;;;;;14.10;7.07;;;6.30;99.90;;;4.32;100.00;98333.25;10429237;27;96586;-90
2023/12/21 17:03:49;;;;;;;13.77;7.13;;;6.30;99.90;;;4.32;100.00;98314.00;10467402;27;96571;-89
2023/12/21 17:08:56;;;;;;;12.77;7.47;;;6.30;99.90;;;4.32;100.00;98306.97;10407607;27;97714;-89
2023/12/21 17:13:59;;;;;;;16.07;7.63;;;6.30;99.90;;;4.27;100.00;98281.19;10438759;27;96527;-90
2023/12/21 17:19:03;;;;;;;22.33;11.70;;;6.30;99.90;;;4.37;100.00;98280.94;10486887;27;96536;-90
2023/12/21 17:24:06;;;;;;;53.60;19.13;;;6.30;99.90;;;4.34;100.00;98275.22;10463363;27;96887;-90
2023/12/21 17:29:10;;;;;;;19.03;9.10;;;6.30;99.90;;;4.33;100.00;98263.88;10450460;27;96550;-90
2023/12/21 17:34:13;;;;;;;17.10;9.20;;;6.30;99.90;;;4.35;100.00;98261.06;10466006;27;96655;-90
2023/12/21 17:39:22;;;;;;;13.03;7.13;;;6.30;99.90;;;4.33;100.00;98248.09;10434638;27;96545;-91
2023/12/21 17:44:25;;;;;;;11.40;7.00;;;6.30;99.90;;;4.30;100.00;98217.72;10455927;27;97921;-91
2023/12/21 17:49:29;;;;;;;23.20;11.17;;;6.30;99.90;;;4.37;100.00;98223.06;10429818;27;96580;-92
2023/12/21 17:54:32;;;;;;;15.53;8.13;;;6.30;99.90;;;4.39;100.00;98220.28;10449960;27;96821;-92
2023/12/21 17:59:36;;;;;;;12.07;6.60;;;6.30;99.90;;;4.38;100.00;98205.47;10424735;27;96562;-91
2023/12/21 18:04:39;;;;;;;12.70;6.53;;;6.30;99.90;;;4.40;100.00;98196.44;10438983;27;96742;-91
2023/12/21 18:09:42;;;;;;;14.27;7.10;;;6.30;99.90;;;4.36;100.00;98189.06;10444295;27;96540;-91
2023/12/21 18:14:46;;;;;;;12.77;6.27;;;6.30;99.90;;;4.27;100.00;98149.72;10437985;27;96690;-92
2023/12/21 18:19:50;;;;;;;15.30;7.57;;;6.20;99.90;;;4.17;100.00;98143.88;10453746;27;97844;-93
2023/12/21 18:24:55;;;;;;;12.43;7.13;;;6.20;99.90;;;4.26;100.00;98137.56;10432842;27;96507;-92
2023/12/21 18:30:00;;;;;;;13.63;7.33;;;6.20;99.90;;;4.24;100.00;98143.97;10429467;27;96762;-92
2023/12/21 18:35:04;;;;;;;13.20;6.70;;;6.20;99.90;;;4.19;100.00;98133.19;10412671;27;96625;-93
2023/12/21 18:40:09;;;;;;;12.27;6.87;;;6.20;99.90;;;4.24;100.00;98112.44;10454993;27;96600;-92
2023/12/21 18:45:13;;;;;;;13.10;7.17;;;6.10;99.90;;;4.26;100.00;98095.50;10411840;27;96442;-93
2023/12/21 18:50:17;;;;;;;16.03;7.30;;;6.20;99.90;;;4.25;100.00;98083.31;10452126;27;96711;-93
2023/12/21 18:55:20;;;;;;;13.20;7.37;;;6.20;99.90;;;4.21;100.00;98062.84;10428751;27;96825;-93
2023/12/21 19:00:24;;;;;;;13.47;7.40;;;6.20;99.90;;;4.28;100.00;98053.25;10414724;27;96542;-93
2023/12/21 19:05:27;;;;;;;12.60;6.73;;;6.20;99.90;;;4.25;100.00;98030.75;10447947;27;96622;-93
2023/12/21 19:10:31;;;;;;;15.87;6.73;;;6.20;99.90;;;4.25;100.00;98020.22;10463123;27;96558;-92
2023/12/21 19:15:35;;;;;;;24.70;10.07;;;6.20;99.90;;;4.19;100.00;97991.22;10409401;27;96668;-93
2023/12/21 19:20:38;;;;;;;22.63;8.77;;;6.20;99.90;;;4.24;100.00;97991.50;10498876;27;96424;-93
2023/12/21 19:25:42;;;;;;;20.63;8.67;;;6.20;99.90;;;4.26;100.00;97963.22;10495302;27;96336;-92
2023/12/21 19:30:47;;;;;;;14.87;8.67;;;6.20;99.90;;;4.32;100.00;97965.13;10466611;27;96403;-93
2023/12/21 19:35:51;;;;;;;28.07;10.73;;;6.20;99.90;;;4.32;100.00;97951.97;10488503;27;96481;-92
2023/12/21 19:40:55;;;;;;;28.93;11.47;;;6.30;99.90;;;4.35;100.00;97942.91;10499654;27;96502;-91
2023/12/21 19:46:00;;;;;;;45.77;15.13;;;6.30;99.90;;;4.40;100.00;97928.22;10440564;27;96603;-92
2023/12/21 19:51:04;;;;;;;32.43;12.43;;;6.30;99.90;;;4.47;100.00;97921.22;10461406;27;96626;-92
2023/12/21 19:56:08;;;;;;;28.87;12.10;;;6.40;99.90;;;4.56;100.00;97935.09;10467626;27;96470;-92
2023/12/21 20:01:11;;;;;;;13.67;5.57;;;6.40;99.90;;;4.65;100.00;97912.09;10439205;27;98208;-90
2023/12/21 20:06:15;;;;;;;20.00;9.50;;;6.50;99.90;;;4.75;100.00;97873.97;10452340;27;96501;-91
2023/12/21 20:11:19;;;;;;;17.70;9.90;;;6.70;99.90;;;4.86;100.00;97877.94;10444222;27;96528;-92
2023/12/21 20:16:24;;;;;;;16.63;8.77;;;6.80;99.90;;;4.83;100.00;97892.25;10436112;27;96447;-93
2023/12/21 20:21:29;;;;;;;22.93;12.37;;;6.80;99.90;;;4.95;100.00;97871.50;10449206;27;96675;-92
2023/12/21 20:26:32;;;;;;;17.73;9.50;;;6.80;99.90;;;5.02;100.00;97874.19;10471943;27;96578;-91
2023/12/21 20:31:35;;;;;;;21.20;9.67;;;6.90;99.90;;;5.04;100.00;97841.44;10447747;27;96442;-92
2023/12/21 20:36:39;;;;;;;21.37;9.13;;;7.00;99.90;;;5.06;100.00;97823.63;10440010;27;96583;-92
2023/12/21 20:41:42;;;;;;;24.83;11.33;;;7.00;99.90;;;4.99;100.00;97804.34;10422474;27;98066;-92
2023/12/21 20:46:46;;;;;;;17.03;9.13;;;7.00;99.90;;;5.08;100.00;97811.09;10435367;27;96768;-93
2023/12/21 20:51:51;;;;;;;15.70;8.97;;;7.00;99.90;;;5.06;100.00;97823.63;10443114;27;97242;-92
2023/12/21 20:56:55;;;;;;;19.47;9.77;;;7.00;99.90;;;5.13;100.00;97820.22;10419852;27;98117;-92
2023/12/21 21:01:59;;;;;;;15.27;9.10;;;7.00;99.90;;;5.07;100.00;97795.50;10408754;28;96958;-92
2023/12/21 21:07:04;;;;;;;16.97;9.30;;;7.10;99.90;;;5.18;100.00;97807.31;10414836;28;96622;-92
2023/12/21 21:12:09;;;;;;;19.93;9.77;;;7.10;99.90;;;5.22;100.00;97796.22;10399846;27;96563;-93
2023/12/21 21:17:14;;;;;;;17.53;9.90;;;7.10;99.90;;;5.24;100.00;97781.03;10417325;27;96573;-92